Time;durP1;ratioP1;P1;durP2;ratioP2;P2;SDS_P1;SDS_P2;PMS_P1;PMS_P2;Temp;Humidity;BMP_temperature;BMP_pressure;BME280_temperature;BME280_humidity;BME280_pressure;Samples;Min_cycle;Max_cycle;Signal;HPM_P1;HPM_P2
2023/06/14 00:02:15;;;;;;;9.50;2.20;;;16.50;70.10;;;;;;4985841;28;20050;-70
2023/06/14 00:04:45;;;;;;;9.63;2.10;;;16.40;70.50;;;;;;4954822;28;221954;-70
2023/06/14 00:07:13;;;;;;;15.25;2.20;;;16.40;70.70;;;;;;4988633;28;20550;-70
2023/06/14 00:09:43;;;;;;;14.32;2.30;;;16.30;71.20;;;;;;4926873;28;218670;-70
2023/06/14 00:12:12;;;;;;;7.55;1.92;;;16.20;71.50;;;;;;4983238;28;20047;-72
2023/06/14 00:14:38;;;;;;;9.50;2.08;;;16.20;71.60;;;;;;4948546;28;168560;-70
2023/06/14 00:17:07;;;;;;;9.48;2.20;;;16.20;71.80;;;;;;4980459;28;20046;-70
2023/06/14 00:19:35;;;;;;;7.47;1.80;;;16.20;71.90;;;;;;4937312;28;220984;-70
2023/06/14 00:22:01;;;;;;;9.88;2.00;;;16.10;72.40;;;;;;4989458;28;20430;-70
2023/06/14 00:24:27;;;;;;;11.25;2.28;;;16.10;72.80;;;;;;4938046;28;211535;-70
2023/06/14 00:26:56;;;;;;;10.07;2.22;;;16.00;73.50;;;;;;4960524;28;20050;-71
2023/06/14 00:29:22;;;;;;;11.55;2.38;;;16.00;73.30;;;;;;4924968;28;207262;-71
2023/06/14 00:31:48;;;;;;;10.25;2.15;;;15.90;73.70;;;;;;4963802;28;20055;-71
2023/06/14 00:34:14;;;;;;;8.38;1.90;;;15.90;74.20;;;;;;4916640;28;221883;-70
2023/06/14 00:36:40;;;;;;;8.85;2.10;;;15.80;74.50;;;;;;4968702;28;20058;-71
2023/06/14 00:39:06;;;;;;;10.65;2.25;;;15.80;74.70;;;;;;4923549;28;212077;-71
2023/06/14 00:41:33;;;;;;;10.95;2.10;;;15.80;75.50;;;;;;4990439;28;20679;-71
2023/06/14 00:43:59;;;;;;;9.25;2.17;;;15.70;75.50;;;;;;4931547;28;214890;-70
2023/06/14 00:46:29;;;;;;;6.80;2.13;;;15.70;75.80;;;;;;4980512;28;20097;-69
2023/06/14 00:48:56;;;;;;;9.73;2.20;;;15.70;76.00;;;;;;4923695;28;255077;-71
2023/06/14 00:51:23;;;;;;;11.68;2.13;;;15.70;76.40;;;;;;4972121;28;20061;-69
2023/06/14 00:53:51;;;;;;;11.63;2.22;;;15.70;76.60;;;;;;4906462;28;215564;-71
2023/06/14 00:56:20;;;;;;;7.65;2.10;;;15.60;77.10;;;;;;4965310;28;20420;-70
2023/06/14 00:58:50;;;;;;;10.10;2.00;;;15.50;78.00;;;;;;4919400;28;207758;-71
2023/06/14 01:01:16;;;;;;;7.47;2.20;;;15.50;78.00;;;;;;4980293;28;21840;-71
2023/06/14 01:03:43;;;;;;;7.22;2.00;;;15.50;79.00;;;;;;4912240;28;224749;-70
2023/06/14 01:06:16;;;;;;;7.20;1.90;;;15.40;79.30;;;;;;4981321;28;20051;-71
2023/06/14 01:08:51;;;;;;;8.55;2.10;;;15.40;79.40;;;;;;4918201;28;210595;-70
2023/06/14 01:11:32;;;;;;;12.57;2.67;;;15.40;79.60;;;;;;4972688;28;20074;-71
2023/06/14 01:14:05;;;;;;;8.00;2.00;;;15.30;80.10;;;;;;4907895;28;209425;-70
2023/06/14 01:16:32;;;;;;;7.97;2.05;;;15.30;80.70;;;;;;4969125;28;20734;-72
2023/06/14 01:19:02;;;;;;;8.00;1.85;;;15.20;81.40;;;;;;4915304;28;206737;-70
2023/06/14 01:21:28;;;;;;;7.30;1.98;;;15.20;81.60;;;;;;4988186;28;20065;-72
2023/06/14 01:23:55;;;;;;;8.82;2.38;;;15.20;81.90;;;;;;4934752;28;213530;-70
2023/06/14 01:26:22;;;;;;;7.93;2.30;;;15.10;82.40;;;;;;4994520;28;20075;-71
2023/06/14 01:28:50;;;;;;;10.07;2.42;;;15.10;83.00;;;;;;4935455;28;165984;-71
2023/06/14 01:31:19;;;;;;;9.48;2.40;;;15.10;83.60;;;;;;4981882;28;20535;-70
2023/06/14 01:33:46;;;;;;;9.73;2.67;;;15.10;83.80;;;;;;4937572;28;205180;-71
2023/06/14 01:36:13;;;;;;;14.45;2.90;;;15.00;84.40;;;;;;4957544;28;20059;-71
2023/06/14 01:38:40;;;;;;;8.45;2.65;;;15.00;85.00;;;;;;4905223;28;128516;-70
2023/06/14 01:41:09;;;;;;;9.40;2.78;;;15.00;85.50;;;;;;4984782;28;20058;-70
2023/06/14 01:43:36;;;;;;;11.80;2.42;;;14.90;85.70;;;;;;4902439;28;234780;-72
2023/06/14 01:46:03;;;;;;;9.45;2.47;;;14.90;86.70;;;;;;4966761;28;20065;-71
2023/06/14 01:48:32;;;;;;;10.90;2.87;;;14.90;87.10;;;;;;4885833;28;1328323;-70
2023/06/14 01:50:59;;;;;;;12.70;2.78;;;14.90;87.70;;;;;;4987205;28;20125;-70
2023/06/14 01:53:25;;;;;;;12.77;2.65;;;14.80;88.90;;;;;;4893233;28;216572;-71
2023/06/14 01:55:53;;;;;;;8.40;2.50;;;14.80;88.70;;;;;;4995246;28;20062;-71
2023/06/14 01:58:21;;;;;;;8.80;2.50;;;14.80;89.40;;;;;;4933365;28;216180;-73
2023/06/14 02:00:47;;;;;;;12.82;2.58;;;14.80;90.10;;;;;;5001736;28;20103;-72
2023/06/14 02:03:13;;;;;;;10.30;2.70;;;14.70;90.20;;;;;;4928211;28;208920;-70
2023/06/14 02:05:39;;;;;;;8.40;2.30;;;14.70;90.50;;;;;;4985168;28;20054;-72
2023/06/14 02:08:08;;;;;;;9.20;2.42;;;14.70;90.60;;;;;;4955641;28;249922;-70
2023/06/14 02:10:34;;;;;;;11.70;2.40;;;14.70;90.90;;;;;;4924236;28;206616;-71
2023/06/14 02:13:00;;;;;;;12.80;2.90;;;14.60;91.40;;;;;;4967829;28;20043;-72
2023/06/14 02:15:33;;;;;;;12.82;2.85;;;14.60;91.50;;;;;;4940179;28;210588;-73
2023/06/14 02:18:03;;;;;;;9.88;2.45;;;14.60;92.00;;;;;;4962858;28;20808;-72
2023/06/14 02:20:30;;;;;;;7.45;2.33;;;14.50;92.00;;;;;;4932201;28;244239;-72
2023/06/14 02:22:56;;;;;;;10.25;2.80;;;14.50;92.40;;;;;;4983421;28;21229;-71
2023/06/14 02:25:22;;;;;;;9.90;2.70;;;14.40;92.60;;;;;;4950483;28;237936;-71
2023/06/14 02:27:49;;;;;;;8.95;2.50;;;14.40;92.80;;;;;;4966186;28;20039;-72
2023/06/14 02:30:15;;;;;;;7.32;2.10;;;14.40;93.30;;;;;;4924321;28;250615;-72
2023/06/14 02:32:44;;;;;;;8.10;2.30;;;14.40;93.30;;;;;;4963646;28;20043;-72
2023/06/14 02:35:10;;;;;;;10.32;2.35;;;14.40;93.70;;;;;;4933687;28;238557;-72
2023/06/14 02:37:37;;;;;;;9.75;2.60;;;14.30;94.10;;;;;;4965944;28;20511;-71
2023/06/14 02:40:04;;;;;;;10.82;2.30;;;14.30;94.50;;;;;;4931819;28;214973;-72
2023/06/14 02:42:30;;;;;;;8.27;2.50;;;14.30;94.50;;;;;;4965667;28;20062;-71
2023/06/14 02:44:56;;;;;;;9.25;2.40;;;14.20;94.60;;;;;;4917173;28;173492;-72
2023/06/14 02:47:22;;;;;;;11.15;2.25;;;14.20;95.00;;;;;;4949996;28;20949;-71
2023/06/14 02:49:48;;;;;;;10.15;2.38;;;14.20;95.40;;;;;;4948771;28;81059;-71
2023/06/14 02:52:15;;;;;;;8.82;2.35;;;14.20;95.20;;;;;;4973587;28;20058;-72
2023/06/14 02:54:42;;;;;;;10.32;2.40;;;14.20;95.50;;;;;;4902304;28;220822;-72
2023/06/14 02:57:08;;;;;;;8.25;2.55;;;14.20;95.50;;;;;;4968286;28;20059;-71
2023/06/14 02:59:35;;;;;;;10.13;2.75;;;14.10;95.80;;;;;;4923855;28;215068;-71
2023/06/14 03:02:01;;;;;;;11.27;2.53;;;14.10;95.90;;;;;;4976237;28;20051;-72
2023/06/14 03:04:28;;;;;;;9.98;2.67;;;14.10;96.00;;;;;;4907401;28;213200;-71
2023/06/14 03:06:54;;;;;;;8.95;2.50;;;14.10;96.20;;;;;;4970479;28;20061;-71
2023/06/14 03:09:21;;;;;;;13.82;2.88;;;14.10;96.40;;;;;;4933706;28;216019;-73
2023/06/14 03:11:47;;;;;;;7.95;2.50;;;14.10;96.50;;;;;;4988165;28;20065;-72
2023/06/14 03:14:13;;;;;;;8.18;2.30;;;14.10;96.70;;;;;;4930938;28;218720;-72
2023/06/14 03:16:41;;;;;;;11.30;2.63;;;14.00;96.90;;;;;;4976844;28;20055;-71
2023/06/14 03:19:07;;;;;;;8.80;2.60;;;14.00;96.90;;;;;;4927790;28;210844;-71
2023/06/14 03:21:34;;;;;;;11.07;2.58;;;14.00;96.90;;;;;;4989737;28;20054;-71
2023/06/14 03:24:01;;;;;;;10.82;2.58;;;14.00;97.40;;;;;;4932990;28;284881;-71
2023/06/14 03:26:31;;;;;;;10.38;2.60;;;14.00;97.50;;;;;;4967658;28;20050;-72
2023/06/14 03:28:59;;;;;;;9.43;2.58;;;14.00;97.60;;;;;;4925215;28;210948;-71
2023/06/14 03:31:26;;;;;;;9.55;2.53;;;14.00;97.60;;;;;;4978536;28;20057;-72
2023/06/14 03:33:52;;;;;;;10.07;2.40;;;14.00;98.10;;;;;;4923997;28;218908;-72
2023/06/14 03:36:18;;;;;;;10.90;2.60;;;14.00;98.10;;;;;;4991626;28;20042;-72
2023/06/14 03:38:44;;;;;;;8.75;2.50;;;14.00;98.10;;;;;;4931261;28;213303;-72
2023/06/14 03:41:10;;;;;;;9.05;2.58;;;14.00;98.20;;;;;;4999457;28;20054;-71
2023/06/14 03:43:36;;;;;;;11.13;2.63;;;14.10;98.50;;;;;;4945275;28;206820;-71
2023/06/14 03:46:06;;;;;;;8.23;2.42;;;14.10;98.60;;;;;;5005619;28;20065;-72
2023/06/14 03:48:32;;;;;;;11.65;2.80;;;14.10;99.00;;;;;;4930176;28;223826;-72
2023/06/14 03:50:58;;;;;;;9.18;2.83;;;14.10;98.90;;;;;;4973719;28;20139;-72
2023/06/14 03:53:24;;;;;;;9.60;2.58;;;14.10;99.20;;;;;;4906451;28;222964;-72
2023/06/14 03:55:53;;;;;;;9.85;2.80;;;14.10;99.10;;;;;;4971494;28;20059;-72
2023/06/14 03:58:20;;;;;;;11.18;2.83;;;14.20;99.20;;;;;;4907900;28;210718;-71
2023/06/14 04:00:46;;;;;;;9.20;2.80;;;14.20;99.40;;;;;;4967197;28;20056;-70
2023/06/14 04:03:15;;;;;;;11.48;3.05;;;14.20;99.40;;;;;;4921379;28;212310;-71
2023/06/14 04:05:42;;;;;;;9.40;2.88;;;14.30;99.50;;;;;;4977969;28;20047;-71
2023/06/14 04:08:09;;;;;;;10.13;3.08;;;14.30;99.50;;;;;;4946721;28;210673;-71
2023/06/14 04:10:35;;;;;;;10.52;2.80;;;14.30;99.50;;;;;;4952971;28;20050;-71
2023/06/14 04:13:02;;;;;;;7.75;2.63;;;14.40;99.40;;;;;;4981012;28;20042;-71
2023/06/14 04:15:28;;;;;;;11.38;2.97;;;14.50;99.40;;;;;;4913632;28;209872;-72
2023/06/14 04:18:00;;;;;;;11.55;3.17;;;14.50;99.60;;;;;;4985167;28;20057;-72
2023/06/14 04:20:26;;;;;;;9.82;2.65;;;14.50;99.80;;;;;;4948265;28;217014;-72
2023/06/14 04:22:52;;;;;;;9.50;3.20;;;14.50;99.60;;;;;;4997936;28;20050;-71
2023/06/14 04:25:19;;;;;;;13.82;3.17;;;14.60;99.70;;;;;;4926221;28;210151;-72
2023/06/14 04:27:47;;;;;;;11.30;3.15;;;14.70;99.70;;;;;;4980191;28;20064;-72
2023/06/14 04:30:13;;;;;;;8.63;2.78;;;14.70;99.60;;;;;;4955828;28;212786;-71
2023/06/14 04:32:39;;;;;;;10.00;2.90;;;14.80;99.60;;;;;;4981621;28;20046;-71
2023/06/14 04:35:07;;;;;;;10.35;3.03;;;14.90;99.80;;;;;;4941064;28;209837;-71
2023/06/14 04:37:33;;;;;;;8.52;3.08;;;14.90;99.60;;;;;;4963041;28;20085;-71
2023/06/14 04:39:59;;;;;;;10.70;3.00;;;14.90;99.70;;;;;;4915384;28;210512;-72
2023/06/14 04:42:29;;;;;;;10.40;2.88;;;14.90;99.50;;;;;;4954363;28;20556;-72
2023/06/14 04:44:58;;;;;;;9.48;2.95;;;15.10;99.50;;;;;;4910447;28;228745;-71
2023/06/14 04:47:29;;;;;;;8.95;3.15;;;15.10;99.50;;;;;;4959343;28;20058;-71
2023/06/14 04:49:57;;;;;;;10.45;2.63;;;15.10;99.50;;;;;;4911593;28;219114;-72
2023/06/14 04:52:26;;;;;;;11.05;2.88;;;15.20;99.40;;;;;;4961530;28;20065;-72
2023/06/14 04:54:54;;;;;;;10.15;3.10;;;15.30;99.50;;;;;;4903624;28;207298;-72
2023/06/14 04:57:22;;;;;;;8.27;2.80;;;15.30;99.30;;;;;;4966828;28;20055;-71
2023/06/14 04:59:54;;;;;;;9.63;3.10;;;15.40;99.30;;;;;;4944451;28;98980;-71
2023/06/14 05:02:24;;;;;;;10.05;3.05;;;15.50;99.30;;;;;;4984066;28;20059;-70
2023/06/14 05:04:50;;;;;;;9.35;3.22;;;15.50;99.20;;;;;;4943605;28;213864;-70
2023/06/14 05:07:17;;;;;;;9.95;2.80;;;15.60;99.20;;;;;;4966043;28;20058;-71
2023/06/14 05:09:43;;;;;;;9.52;3.03;;;15.60;99.20;;;;;;4926096;28;237887;-71
2023/06/14 05:12:09;;;;;;;9.73;3.22;;;15.80;99.20;;;;;;4968511;28;20066;-71
2023/06/14 05:14:36;;;;;;;10.40;3.03;;;15.80;99.20;;;;;;4935675;28;171431;-70
2023/06/14 05:17:02;;;;;;;9.68;3.05;;;15.90;99.10;;;;;;4989763;28;20061;-70
2023/06/14 05:19:28;;;;;;;8.20;3.03;;;16.00;99.10;;;;;;4934926;28;225496;-70
2023/06/14 05:21:54;;;;;;;10.35;3.30;;;16.00;98.90;;;;;;4970066;28;20046;-71
2023/06/14 05:24:21;;;;;;;9.10;3.00;;;16.10;98.90;;;;;;4926382;28;217366;-71
2023/06/14 05:26:49;;;;;;;12.68;3.40;;;16.20;98.90;;;;;;4974646;28;20051;-70
2023/06/14 05:29:15;;;;;;;9.68;3.20;;;16.20;98.70;;;;;;4926684;28;250274;-70
2023/06/14 05:31:41;;;;;;;12.27;3.10;;;16.40;98.80;;;;;;4998941;28;20423;-70
2023/06/14 05:34:07;;;;;;;13.52;3.42;;;16.40;98.60;;;;;;4940423;28;234304;-70
2023/06/14 05:36:33;;;;;;;11.60;3.30;;;16.60;98.50;;;;;;4984214;28;20054;-71
2023/06/14 05:39:00;;;;;;;10.15;3.15;;;16.70;98.40;;;;;;4931392;28;243403;-71
2023/06/14 05:41:27;;;;;;;10.52;2.95;;;16.80;98.30;;;;;;4977934;28;20424;-70
2023/06/14 05:43:57;;;;;;;9.02;3.30;;;16.90;98.20;;;;;;4920817;28;211523;-70
2023/06/14 05:46:26;;;;;;;8.35;2.80;;;17.10;98.10;;;;;;4960160;28;20059;-70
2023/06/14 05:48:54;;;;;;;10.27;3.30;;;17.40;97.90;;;;;;4924714;28;208723;-70
2023/06/14 05:51:21;;;;;;;10.93;3.00;;;17.60;97.50;;;;;;4996106;28;20058;-71
2023/06/14 05:53:50;;;;;;;9.60;3.85;;;17.80;97.50;;;;;;4934595;28;214175;-71
2023/06/14 05:56:17;;;;;;;10.07;3.17;;;18.10;97.10;;;;;;4994429;28;20496;-71
2023/06/14 05:58:45;;;;;;;10.63;3.10;;;18.30;96.90;;;;;;4938914;28;177160;-71
2023/06/14 06:01:11;;;;;;;9.63;3.00;;;18.50;96.50;;;;;;4976058;28;20574;-68
2023/06/14 06:03:37;;;;;;;10.95;2.78;;;18.80;96.30;;;;;;4934938;28;220207;-71
2023/06/14 06:06:03;;;;;;;8.10;2.55;;;19.00;95.40;;;;;;5002051;28;20058;-69
2023/06/14 06:08:31;;;;;;;8.73;2.83;;;19.10;95.50;;;;;;4919680;28;217372;-69
2023/06/14 06:10:57;;;;;;;10.15;3.03;;;19.20;94.80;;;;;;4949075;28;20050;-70
2023/06/14 06:13:23;;;;;;;10.20;2.70;;;19.50;94.90;;;;;;4932964;28;207514;-70
2023/06/14 06:15:49;;;;;;;8.80;2.40;;;19.70;94.60;;;;;;4996684;28;20066;-70
2023/06/14 06:18:15;;;;;;;10.90;2.80;;;19.80;94.20;;;;;;4932825;28;247465;-69
2023/06/14 06:20:41;;;;;;;11.48;2.88;;;19.90;94.00;;;;;;4979439;28;20082;-70
2023/06/14 06:23:10;;;;;;;10.35;2.80;;;20.10;93.30;;;;;;4951140;28;208665;-69
2023/06/14 06:25:36;;;;;;;9.80;2.53;;;20.40;93.50;;;;;;4968741;28;20061;-70
2023/06/14 06:28:03;;;;;;;11.05;2.78;;;20.60;93.30;;;;;;4985769;28;20046;-69
2023/06/14 06:30:29;;;;;;;7.63;2.50;;;20.90;93.00;;;;;;4931393;28;208066;-70
2023/06/14 06:32:55;;;;;;;9.75;2.55;;;21.10;92.70;;;;;;4966161;28;20059;-70
2023/06/14 06:35:21;;;;;;;10.65;2.70;;;21.40;92.40;;;;;;4948559;28;215799;-69
2023/06/14 06:37:47;;;;;;;7.63;2.40;;;21.70;91.90;;;;;;4987432;28;20055;-70
2023/06/14 06:40:13;;;;;;;9.63;2.60;;;21.90;91.70;;;;;;4938126;28;155195;-71
2023/06/14 06:42:40;;;;;;;9.55;2.30;;;22.10;91.10;;;;;;4985546;28;20120;-71
2023/06/14 06:45:06;;;;;;;11.73;2.40;;;22.20;90.80;;;;;;4959436;28;219954;-70
2023/06/14 06:47:32;;;;;;;8.40;2.35;;;22.30;89.10;;;;;;4984365;28;20054;-69
2023/06/14 06:49:58;;;;;;;9.07;2.30;;;22.50;89.50;;;;;;4945031;28;214486;-70
2023/06/14 06:52:28;;;;;;;7.50;2.35;;;22.30;88.50;;;;;;4981177;28;20061;-69
2023/06/14 06:54:55;;;;;;;11.77;2.40;;;22.60;88.50;;;;;;4921092;28;226525;-70
2023/06/14 06:57:22;;;;;;;10.35;2.30;;;22.70;86.90;;;;;;4983585;28;20054;-70
2023/06/14 06:59:49;;;;;;;10.85;2.28;;;22.90;87.30;;;;;;4909322;28;130954;-70
2023/06/14 07:02:16;;;;;;;10.95;2.30;;;23.00;86.30;;;;;;4965615;28;20055;-70
2023/06/14 07:04:42;;;;;;;8.63;2.58;;;23.20;85.70;;;;;;4906342;28;209557;-69
2023/06/14 07:07:11;;;;;;;7.53;2.00;;;23.50;83.60;;;;;;4962552;28;20054;-70
2023/06/14 07:09:45;;;;;;;7.32;2.20;;;23.60;82.40;;;;;;4914895;28;209327;-69
2023/06/14 07:12:11;;;;;;;8.88;2.30;;;23.80;83.80;;;;;;4965817;28;20067;-69
2023/06/14 07:14:37;;;;;;;12.10;2.40;;;24.00;82.80;;;;;;4930042;28;212410;-72
2023/06/14 07:17:07;;;;;;;10.60;2.40;;;23.90;82.30;;;;;;4976231;28;20066;-69
2023/06/14 07:19:35;;;;;;;9.18;2.20;;;24.10;82.10;;;;;;4941153;28;169286;-70
2023/06/14 07:22:02;;;;;;;8.30;2.15;;;24.20;81.20;;;;;;4968258;28;20054;-70
2023/06/14 07:24:28;;;;;;;14.15;2.38;;;24.80;80.90;;;;;;4923578;28;210712;-71
2023/06/14 07:26:56;;;;;;;7.55;2.00;;;25.40;80.20;;;;;;4984869;28;20067;-71
2023/06/14 07:29:22;;;;;;;9.48;2.17;;;26.00;77.90;;;;;;4946949;28;212298;-70
2023/06/14 07:31:51;;;;;;;12.20;2.22;;;25.70;78.00;;;;;;4994370;28;20416;-70
2023/06/14 07:34:17;;;;;;;12.82;2.10;;;25.40;78.40;;;;;;4941889;28;208091;-71
2023/06/14 07:36:44;;;;;;;9.38;2.08;;;25.40;78.50;;;;;;4986818;28;20055;-71
2023/06/14 07:39:11;;;;;;;8.15;2.13;;;25.80;78.00;;;;;;4940800;28;209092;-71
2023/06/14 07:41:37;;;;;;;10.40;2.30;;;26.20;77.10;;;;;;4987401;28;20055;-71
2023/06/14 07:44:03;;;;;;;7.00;2.10;;;26.20;76.50;;;;;;4933210;28;207951;-71
2023/06/14 07:46:32;;;;;;;6.90;1.92;;;26.30;75.30;;;;;;4957281;28;20436;-72
2023/06/14 07:48:58;;;;;;;10.63;2.10;;;26.20;74.90;;;;;;4912776;28;210251;-72
2023/06/14 07:51:25;;;;;;;12.23;2.25;;;26.30;73.40;;;;;;4974320;28;20507;-72
2023/06/14 07:53:51;;;;;;;10.50;2.10;;;26.40;74.60;;;;;;4910137;28;231308;-71
2023/06/14 07:56:20;;;;;;;7.57;2.00;;;26.60;73.30;;;;;;5000175;28;20062;-71
2023/06/14 07:58:46;;;;;;;8.37;1.90;;;26.60;73.90;;;;;;4934284;28;218712;-71
2023/06/14 08:01:12;;;;;;;9.88;2.30;;;27.10;74.20;;;;;;5000062;28;20046;-70
2023/06/14 08:03:38;;;;;;;10.82;1.98;;;27.20;70.20;;;;;;4937312;28;210362;-71
2023/06/14 08:06:04;;;;;;;9.32;2.35;;;27.00;72.20;;;;;;5003251;28;20061;-71
2023/06/14 08:08:31;;;;;;;8.75;2.10;;;27.30;72.10;;;;;;4931800;28;211010;-70
2023/06/14 08:10:57;;;;;;;7.63;2.10;;;27.50;71.70;;;;;;4994466;28;20541;-72
2023/06/14 08:13:23;;;;;;;10.90;2.40;;;27.70;71.10;;;;;;4928685;28;212086;-71
2023/06/14 08:15:49;;;;;;;13.15;2.33;;;27.30;69.50;;;;;;4995702;28;20054;-71
2023/06/14 08:18:15;;;;;;;7.10;1.83;;;27.30;70.00;;;;;;4918269;28;212114;-71
2023/06/14 08:20:41;;;;;;;9.25;2.10;;;27.30;70.80;;;;;;4981483;28;20062;-71
2023/06/14 08:23:11;;;;;;;8.50;2.20;;;27.50;71.10;;;;;;4953230;28;213511;-71
2023/06/14 08:25:37;;;;;;;7.75;1.95;;;28.00;70.00;;;;;;4970214;28;20050;-71
2023/06/14 08:28:03;;;;;;;9.93;2.42;;;28.20;69.30;;;;;;4962892;28;20057;-70
2023/06/14 08:30:29;;;;;;;5.88;1.73;;;28.30;67.90;;;;;;4950028;28;207489;-72
2023/06/14 08:32:55;;;;;;;7.28;1.88;;;28.50;68.40;;;;;;4983505;28;20058;-72
2023/06/14 08:35:22;;;;;;;9.85;2.05;;;28.60;68.10;;;;;;4890620;28;219698;-71
2023/06/14 08:37:49;;;;;;;9.18;1.90;;;28.70;66.20;;;;;;4965407;28;20050;-71
2023/06/14 08:40:21;;;;;;;8.68;1.90;;;28.40;65.60;;;;;;4914731;28;210335;-71
2023/06/14 08:42:51;;;;;;;7.10;1.85;;;28.10;65.50;;;;;;4966266;28;20051;-71
2023/06/14 08:45:18;;;;;;;;;;;28.30;64.40;;;;;;4927274;28;246357;-71
2023/06/14 08:47:45;;;;;;;6.82;1.95;;;28.40;64.80;;;;;;4949174;28;19948;-72
2023/06/14 08:50:12;;;;;;;7.88;2.10;;;28.50;66.00;;;;;;4943039;28;210234;-71
2023/06/14 08:52:49;;;;;;;10.63;2.15;;;29.10;66.10;;;;;;4962699;28;20095;-72
2023/06/14 08:55:17;;;;;;;7.45;2.00;;;29.40;64.20;;;;;;4933585;28;255543;-71
2023/06/14 08:57:45;;;;;;;11.10;2.00;;;29.40;64.50;;;;;;4960190;28;20066;-71
2023/06/14 09:00:13;;;;;;;12.25;2.10;;;29.60;64.70;;;;;;4918084;28;252245;-70
2023/06/14 09:02:43;;;;;;;10.02;2.17;;;29.70;63.70;;;;;;4964751;28;20054;-71
2023/06/14 09:05:13;;;;;;;8.68;1.90;;;30.00;64.60;;;;;;4940746;28;202105;-70
2023/06/14 09:07:43;;;;;;;13.73;2.15;;;29.90;63.40;;;;;;4980188;28;20065;-71
2023/06/14 09:10:14;;;;;;;8.40;1.88;;;29.60;62.30;;;;;;4920892;28;209908;-71
2023/06/14 09:12:41;;;;;;;7.75;1.80;;;29.60;62.20;;;;;;4996157;28;20054;-71
2023/06/14 09:15:08;;;;;;;8.02;1.92;;;29.70;62.50;;;;;;4964970;28;208259;-70
2023/06/14 09:17:38;;;;;;;6.75;1.80;;;29.70;62.10;;;;;;4963379;28;20062;-71
2023/06/14 09:20:09;;;;;;;8.98;1.80;;;29.80;62.70;;;;;;4950527;28;206078;-72
2023/06/14 09:22:35;;;;;;;7.07;1.60;;;30.50;62.60;;;;;;4960991;28;20051;-71
2023/06/14 09:25:02;;;;;;;8.27;1.60;;;30.50;60.40;;;;;;4920012;28;214643;-71
2023/06/14 09:27:32;;;;;;;6.97;1.90;;;30.60;61.30;;;;;;4963835;28;20063;-72
2023/06/14 09:29:58;;;;;;;;;;;30.00;59.90;;;;;;4923916;28;231705;-71
2023/06/14 09:32:25;;;;;;;11.60;1.90;;;29.80;60.00;;;;;;4966594;28;20261;-70
2023/06/14 09:34:51;;;;;;;10.27;1.98;;;29.80;61.30;;;;;;4928947;28;213585;-71
2023/06/14 09:37:31;;;;;;;8.30;1.77;;;29.60;60.40;;;;;;4965642;28;20063;-70
2023/06/14 09:39:58;;;;;;;;;;;29.80;60.30;;;;;;4924388;28;207807;-71
2023/06/14 09:42:28;;;;;;;9.75;1.98;;;29.90;60.00;;;;;;4983124;28;20379;-71
2023/06/14 09:44:55;;;;;;;;;;;30.30;60.80;;;;;;4942746;28;210618;-71
2023/06/14 09:47:21;;;;;;;5.97;1.70;;;30.60;59.40;;;;;;4986977;28;20399;-70
2023/06/14 09:49:48;;;;;;;8.73;2.17;;;31.20;60.30;;;;;;4932585;28;211601;-70
2023/06/14 09:52:19;;;;;;;11.63;1.75;;;31.30;58.60;;;;;;4982774;28;20435;-70
2023/06/14 09:54:47;;;;;;;10.32;1.67;;;30.80;59.10;;;;;;4933792;28;210971;-71
2023/06/14 09:57:21;;;;;;;7.43;1.67;;;30.80;59.10;;;;;;4971406;28;20062;-71
2023/06/14 09:59:48;;;;;;;7.15;2.00;;;31.30;58.40;;;;;;4926840;28;219644;-71
2023/06/14 10:02:25;;;;;;;10.50;1.77;;;31.40;58.00;;;;;;4963937;28;20058;-71
2023/06/14 10:05:03;;;;;;;6.32;1.83;;;31.40;58.30;;;;;;4914995;28;214681;-70
2023/06/14 10:07:34;;;;;;;10.30;1.98;;;31.80;56.50;;;;;;4965156;28;20050;-70
2023/06/14 10:10:01;;;;;;;7.75;1.60;;;31.50;58.00;;;;;;4925831;28;209048;-71
2023/06/14 10:12:28;;;;;;;6.55;1.85;;;31.80;58.70;;;;;;4964094;28;20055;-71
2023/06/14 10:14:55;;;;;;;10.48;2.00;;;32.30;58.20;;;;;;4923789;28;218494;-72
2023/06/14 10:17:52;;;;;;;8.82;1.80;;;32.10;56.70;;;;;;4965445;28;20050;-72
2023/06/14 10:20:48;;;;;;;7.47;1.80;;;31.10;56.60;;;;;;4904303;28;204235;-72
2023/06/14 10:23:19;;;;;;;7.63;1.77;;;31.10;57.40;;;;;;4914591;28;217543;-73
2023/06/14 10:25:50;;;;;;;5.70;1.60;;;31.70;57.40;;;;;;5004240;28;20042;-70
2023/06/14 10:28:19;;;;;;;7.57;1.58;;;32.10;58.00;;;;;;4923679;28;207701;-72
2023/06/14 10:31:05;;;;;;;7.55;1.88;;;32.10;57.00;;;;;;4978856;28;20055;-72
2023/06/14 10:33:50;;;;;;;8.75;1.65;;;32.30;56.30;;;;;;4915834;28;215301;-72
2023/06/14 10:36:22;;;;;;;6.47;1.65;;;33.00;56.70;;;;;;5003467;28;20042;-71
2023/06/14 10:39:17;;;;;;;6.63;1.50;;;32.50;54.80;;;;;;4941404;28;214896;-71
2023/06/14 10:41:54;;;;;;;6.85;1.60;;;32.60;55.20;;;;;;4983800;28;20046;-71
2023/06/14 10:44:20;;;;;;;7.68;1.60;;;32.30;56.00;;;;;;4936042;28;245606;-72
2023/06/14 10:46:52;;;;;;;6.22;1.40;;;32.00;55.20;;;;;;4975761;28;20047;-70
2023/06/14 10:49:19;;;;;;;6.25;1.60;;;31.80;54.70;;;;;;4918676;28;201199;-71
2023/06/14 10:51:50;;;;;;;7.47;1.52;;;31.80;55.60;;;;;;4962895;28;20046;-72
2023/06/14 10:54:16;;;;;;;7.38;1.40;;;31.30;55.30;;;;;;4918499;28;216219;-72
2023/06/14 10:56:52;;;;;;;8.05;1.60;;;31.60;55.50;;;;;;4973142;28;20050;-73
2023/06/14 10:59:22;;;;;;;5.40;1.25;;;31.90;56.10;;;;;;4925742;28;217719;-70
2023/06/14 11:02:22;;;;;;;9.35;1.88;;;32.20;54.90;;;;;;4974905;28;20067;-72
2023/06/14 11:04:56;;;;;;;6.00;1.35;;;32.10;55.20;;;;;;4932031;28;259359;-71
2023/06/14 11:07:49;;;;;;;9.13;1.40;;;31.90;54.40;;;;;;4987014;28;20046;-70
2023/06/14 11:10:41;;;;;;;5.97;1.40;;;32.10;54.30;;;;;;4937070;28;210651;-72
2023/06/14 11:13:08;;;;;;;9.15;1.30;;;30.80;53.80;;;;;;4968178;28;210201;-72
2023/06/14 11:15:36;;;;;;;9.50;1.50;;;30.70;54.10;;;;;;4913020;28;2107105;-71
2023/06/14 11:18:04;;;;;;;6.03;1.40;;;30.90;54.70;;;;;;4985312;28;20065;-72
2023/06/14 11:20:33;;;;;;;7.00;1.35;;;31.00;54.20;;;;;;4900774;28;1127289;-72
2023/06/14 11:22:59;;;;;;;10.63;1.40;;;30.90;53.60;;;;;;4965409;28;20077;-73
2023/06/14 11:25:27;;;;;;;5.03;1.23;;;31.00;54.20;;;;;;4932757;28;205477;-72
2023/06/14 11:27:55;;;;;;;7.82;1.67;;;30.90;53.60;;;;;;4965882;28;20046;-72
2023/06/14 11:30:25;;;;;;;5.60;1.30;;;30.90;54.30;;;;;;4954130;28;218495;-71
2023/06/14 11:32:53;;;;;;;5.05;1.40;;;30.80;54.40;;;;;;4982723;28;20069;-73
2023/06/14 11:35:25;;;;;;;7.32;1.70;;;31.30;54.10;;;;;;4940687;28;209795;-71
2023/06/14 11:37:56;;;;;;;6.03;1.50;;;31.10;54.90;;;;;;4963433;28;20063;-72
2023/06/14 11:40:27;;;;;;;6.60;1.70;;;31.10;54.00;;;;;;4873233;28;1710071;-73
2023/06/14 11:43:01;;;;;;;6.80;1.67;;;30.90;54.20;;;;;;4985599;28;20058;-71
2023/06/14 11:45:27;;;;;;;9.32;1.67;;;30.80;54.50;;;;;;4938946;28;209987;-71
2023/06/14 11:47:58;;;;;;;7.63;1.65;;;30.80;54.80;;;;;;4986085;28;20054;-71
2023/06/14 11:50:25;;;;;;;8.35;1.65;;;30.80;54.80;;;;;;4961944;28;215639;-71
2023/06/14 11:53:10;;;;;;;6.53;1.45;;;31.00;55.50;;;;;;4980551;28;20058;-71
2023/06/14 11:55:40;;;;;;;5.35;1.50;;;31.20;54.60;;;;;;4948910;28;20511;-70
2023/06/14 11:58:07;;;;;;;6.28;1.52;;;31.50;53.90;;;;;;4969791;28;213099;-71
2023/06/14 12:00:35;;;;;;;7.68;1.63;;;31.70;54.20;;;;;;4961157;28;275471;-71
2023/06/14 12:03:02;;;;;;;9.07;1.50;;;32.50;54.50;;;;;;4981405;28;20496;-72
2023/06/14 12:05:29;;;;;;;9.90;1.50;;;32.30;53.20;;;;;;4944984;28;208625;-72
2023/06/14 12:07:59;;;;;;;6.72;1.58;;;31.50;54.20;;;;;;4982433;28;20101;-72
2023/06/14 12:10:26;;;;;;;9.00;1.80;;;31.30;54.00;;;;;;4923501;28;206444;-73
2023/06/14 12:13:02;;;;;;;6.57;1.50;;;31.40;54.50;;;;;;4961622;28;20055;-72
2023/06/14 12:15:29;;;;;;;6.90;1.40;;;31.10;53.30;;;;;;4913659;28;206854;-72
2023/06/14 12:17:58;;;;;;;7.88;1.60;;;30.90;54.40;;;;;;4960463;28;20063;-72
2023/06/14 12:20:32;;;;;;;6.88;1.60;;;31.00;54.00;;;;;;4915845;28;209283;-72
2023/06/14 12:23:00;;;;;;;8.55;1.67;;;31.20;54.30;;;;;;4984997;28;20061;-72
2023/06/14 12:25:40;;;;;;;6.30;1.40;;;31.70;54.30;;;;;;4946151;28;224393;-72
2023/06/14 12:28:09;;;;;;;7.05;1.70;;;31.60;53.30;;;;;;4974065;28;208181;-71
2023/06/14 12:30:37;;;;;;;6.53;1.52;;;31.80;54.00;;;;;;4958285;28;20053;-73
2023/06/14 12:33:07;;;;;;;8.52;1.48;;;32.10;54.30;;;;;;4986886;28;20073;-72
2023/06/14 12:35:33;;;;;;;6.80;1.38;;;31.90;52.70;;;;;;4937045;28;20058;-73
2023/06/14 12:37:59;;;;;;;7.05;1.38;;;31.60;52.90;;;;;;4966487;28;20065;-72
2023/06/14 12:40:26;;;;;;;9.75;1.42;;;31.30;53.00;;;;;;4942197;28;225529;-71
2023/06/14 12:42:52;;;;;;;6.78;1.48;;;31.20;53.40;;;;;;4963298;28;20053;-72
2023/06/14 12:45:18;;;;;;;8.05;1.45;;;31.70;53.00;;;;;;4925361;28;246101;-72
2023/06/14 12:47:44;;;;;;;5.50;1.40;;;31.60;53.20;;;;;;4968404;28;20062;-72